createdAt,value
2023-01-06T00:03:52.397Z,101708.13
2023-01-06T00:11:28.606Z,101707.06
2023-01-06T00:19:03.872Z,101712.94
2023-01-06T00:26:37.943Z,101700.28
2023-01-06T00:34:13.419Z,101694.25
2023-01-06T00:42:06.100Z,101690.63
2023-01-06T00:49:41.656Z,101699.53
2023-01-06T00:57:15.764Z,101696.97
2023-01-06T01:04:51.198Z,101692.53
2023-01-06T01:12:25.279Z,101695.84
2023-01-06T01:20:01.310Z,101679.88
2023-01-06T01:27:35.468Z,101680.94
2023-01-06T01:35:11.608Z,101662.59
2023-01-06T01:42:45.585Z,101661.75
2023-01-06T01:50:28.188Z,101669.66
2023-01-06T01:58:07.461Z,101648.63
2023-01-06T02:05:48.162Z,101656.88
2023-01-06T02:13:22.472Z,101649.94
2023-01-06T02:21:08.640Z,101639.22
2023-01-06T02:29:01.404Z,101625.13
2023-01-06T02:36:46.315Z,101628.88
2023-01-06T02:44:29.367Z,101612.75
2023-01-06T02:52:14.348Z,101607.78
2023-01-06T02:59:50.575Z,101608.94
2023-01-06T03:07:29.533Z,101603.41
2023-01-06T03:15:03.830Z,101594.66
2023-01-06T03:22:40.751Z,101575.38
2023-01-06T03:30:16.305Z,101576.28
2023-01-06T03:37:58.269Z,101572.16
2023-01-06T03:45:43.478Z,101554.59
2023-01-06T03:53:34.389Z,101541.38
2023-01-06T04:01:10.297Z,101538.97
2023-01-06T04:08:45.970Z,101540.94
2023-01-06T04:16:20.070Z,101530.44
2023-01-06T04:23:55.640Z,101513.03
2023-01-06T04:31:29.987Z,101510.63
2023-01-06T04:39:05.787Z,101502.84
2023-01-06T04:46:40.102Z,101494.28
2023-01-06T04:54:15.560Z,101465.22
2023-01-06T05:01:49.423Z,101459.28
2023-01-06T05:09:24.981Z,101454.06
2023-01-06T05:16:58.961Z,101450.63
2023-01-06T05:24:34.410Z,101441.84
2023-01-06T05:32:08.289Z,101436.56
2023-01-06T05:39:44.059Z,101425.16
2023-01-06T05:47:17.952Z,101425.97
2023-01-06T05:54:53.195Z,101405.94
2023-01-06T06:02:27.092Z,101406.16
2023-01-06T06:10:02.634Z,101418.81
2023-01-06T06:17:36.948Z,101397.91
2023-01-06T06:25:12.221Z,101383.22
2023-01-06T06:32:46.124Z,101379.75
2023-01-06T06:40:21.358Z,101375.72
2023-01-06T06:47:55.477Z,101365.38
2023-01-06T06:55:30.746Z,101356.88
2023-01-06T07:03:04.973Z,101351.00
2023-01-06T07:10:40.551Z,101347.69
2023-01-06T07:18:14.856Z,101350.69
2023-01-06T07:25:54.356Z,101334.91
2023-01-06T07:33:29.452Z,101344.88
2023-01-06T07:41:05.019Z,101343.28
2023-01-06T07:48:38.867Z,101347.00
2023-01-06T07:56:14.908Z,101344.53
2023-01-06T08:03:48.870Z,101362.50
2023-01-06T08:11:24.189Z,101337.09
2023-01-06T08:18:58.091Z,101320.47
2023-01-06T08:26:33.461Z,101313.63
2023-01-06T08:34:07.175Z,101297.97
2023-01-06T08:41:42.607Z,101300.81
2023-01-06T08:49:16.471Z,101293.97
2023-01-06T08:56:52.665Z,101285.47
2023-01-06T09:04:26.498Z,101271.56
2023-01-06T09:12:01.602Z,101295.75
2023-01-06T09:19:35.365Z,101296.06
2023-01-06T09:27:10.665Z,101269.13
2023-01-06T09:34:44.481Z,101266.69
2023-01-06T09:42:30.698Z,101254.81
2023-01-06T09:50:09.658Z,101247.38
2023-01-06T09:57:50.164Z,101229.06
2023-01-06T10:05:29.682Z,101213.44
2023-01-06T10:13:19.971Z,101199.72
2023-01-06T10:20:59.401Z,101192.06
2023-01-06T10:28:37.289Z,101182.56
2023-01-06T10:36:13.963Z,101157.56
2023-01-06T10:43:49.240Z,101158.06
2023-01-06T10:51:36.462Z,101147.91
2023-01-06T10:59:13.395Z,101148.34
2023-01-06T11:06:51.375Z,101137.94
2023-01-06T11:14:31.265Z,101132.66
2023-01-06T11:22:06.248Z,101126.66
2023-01-06T11:29:41.439Z,101114.34
2023-01-06T11:37:15.524Z,101122.47
2023-01-06T11:44:51.954Z,101094.25
2023-01-06T11:52:31.308Z,101104.19
2023-01-06T12:00:21.547Z,101100.78
2023-01-06T12:07:59.026Z,101087.78
2023-01-06T12:15:36.142Z,101084.41
2023-01-06T12:23:17.675Z,101076.59
2023-01-06T12:30:58.483Z,101067.84
2023-01-06T12:38:44.107Z,101052.09
2023-01-06T12:46:24.928Z,101047.09
2023-01-06T12:54:04.919Z,101049.00
2023-01-06T13:01:46.838Z,101043.84
2023-01-06T13:09:32.382Z,101054.72
2023-01-06T13:17:16.526Z,101053.13
2023-01-06T13:25:13.851Z,101052.38
2023-01-06T13:33:09.577Z,101062.31
2023-01-06T13:40:45.590Z,101074.97
2023-01-06T13:48:24.427Z,101074.31
2023-01-06T13:56:30.152Z,101075.28
2023-01-06T14:04:42.730Z,101092.38
2023-01-06T14:12:22.712Z,101107.78
2023-01-06T14:19:57.140Z,101119.47
2023-01-06T14:28:13.532Z,101120.69
2023-01-06T14:35:49.745Z,101128.78
2023-01-06T14:43:32.040Z,101126.88
2023-01-06T14:51:08.549Z,101131.31
2023-01-06T14:58:42.412Z,101141.00
2023-01-06T15:06:22.059Z,101153.41
2023-01-06T15:13:56.304Z,101154.25
2023-01-06T15:21:31.637Z,101155.97
2023-01-06T15:29:07.253Z,101159.59
2023-01-06T15:36:44.227Z,101176.41
2023-01-06T15:44:23.901Z,101200.41
2023-01-06T15:52:05.139Z,101202.06
2023-01-06T15:59:39.941Z,101211.00
2023-01-06T16:07:36.734Z,101226.09
2023-01-06T16:15:46.468Z,101231.34
2023-01-06T16:23:32.762Z,101238.50
2023-01-06T16:31:09.563Z,101252.72
2023-01-06T16:38:45.387Z,101250.06
2023-01-06T16:46:22.345Z,101243.69
2023-01-06T16:53:58.080Z,101262.28
2023-01-06T17:01:32.113Z,101278.19
2023-01-06T17:09:18.115Z,101267.44
2023-01-06T17:16:51.998Z,101285.22
2023-01-06T17:24:30.167Z,101297.66
2023-01-06T17:32:11.478Z,101304.69
2023-01-06T17:39:48.209Z,101317.91
2023-01-06T17:47:29.246Z,101330.19
2023-01-06T17:55:46.557Z,101327.25
2023-01-06T18:03:23.306Z,101352.06
2023-01-06T18:11:07.707Z,101353.72
2023-01-06T18:18:42.072Z,101346.44
2023-01-06T18:26:35.011Z,101352.47
2023-01-06T18:34:27.547Z,101354.88
2023-01-06T18:42:25.273Z,101345.00
2023-01-06T18:50:15.116Z,101347.56
2023-01-06T18:57:56.986Z,101360.78
2023-01-06T19:05:31.764Z,101370.34
2023-01-06T19:13:18.986Z,101374.47
2023-01-06T19:20:53.391Z,101396.59
2023-01-06T19:28:32.263Z,101388.41
2023-01-06T19:36:39.081Z,101397.97
2023-01-06T19:44:16.043Z,101405.75
2023-01-06T19:51:51.250Z,101406.56
2023-01-06T19:59:30.345Z,101408.97
2023-01-06T20:07:04.529Z,101423.09
2023-01-06T20:14:39.914Z,101412.25
2023-01-06T20:22:13.969Z,101424.50
2023-01-06T20:29:49.464Z,101428.75
2023-01-06T20:37:23.261Z,101421.56
2023-01-06T20:44:58.555Z,101425.00
2023-01-06T20:52:32.356Z,101431.97
2023-01-06T21:00:11.703Z,101432.75
2023-01-06T21:07:45.599Z,101439.41
2023-01-06T21:15:20.839Z,101444.41
2023-01-06T21:22:54.759Z,101444.16
2023-01-06T21:30:32.073Z,101444.94
2023-01-06T21:38:06.008Z,101449.16
2023-01-06T21:45:43.270Z,101445.19
2023-01-06T21:53:17.461Z,101458.22
2023-01-06T22:00:53.381Z,101456.25
2023-01-06T22:08:27.548Z,101455.03
2023-01-06T22:16:03.136Z,101458.25
2023-01-06T22:23:37.797Z,101449.88
2023-01-06T22:31:13.127Z,101465.59
2023-01-06T22:38:46.951Z,101474.06
2023-01-06T22:46:22.506Z,101472.13
2023-01-06T22:53:57.151Z,101477.28
2023-01-06T23:01:33.355Z,101468.25
2023-01-06T23:09:07.259Z,101466.41
2023-01-06T23:16:45.083Z,101465.47
2023-01-06T23:24:19.093Z,101458.31
2023-01-06T23:31:54.455Z,101450.03
2023-01-06T23:39:28.397Z,101471.22
2023-01-06T23:47:03.777Z,101469.03
2023-01-06T23:54:37.787Z,101473.38
